Terminal Aerodrome Forecast
Issued by NWS

Home | Current Version | Previous Version | Text Only | Print | Product List | Glossary On
Versions: 1 2 3 4 5 6 7 8 9 10 11 12
000
FTUS45 KVEF 250500
TAFEED
TAF
KEED 250520Z 2506/2606 24008KT P6SM SCT250
     FM251800 20014G22KT P6SM BKN250
     FM252200 21018G28KT P6SM SCT140 BKN200=

USA.gov is the U.S. government's official web portal to all federal, state and local government web resources and services.